sensor_id;sensor_type;location;lat;lon;timestamp;P1;durP1;ratioP1;P2;durP2;ratioP2
64313;SDS011;50650;48.180;11.524;2022-08-19T00:00:25;4.22;;;2.67;;
64313;SDS011;50650;48.180;11.524;2022-08-19T00:02:52;3.25;;;2.92;;
64313;SDS011;50650;48.180;11.524;2022-08-19T00:05:19;3.25;;;2.95;;
64313;SDS011;50650;48.180;11.524;2022-08-19T00:07:47;4.47;;;2.78;;
64313;SDS011;50650;48.180;11.524;2022-08-19T00:10:17;4.68;;;3.35;;
64313;SDS011;50650;48.180;11.524;2022-08-19T00:12:44;3.35;;;3.05;;
64313;SDS011;50650;48.180;11.524;2022-08-19T00:15:12;4.35;;;3.45;;
64313;SDS011;50650;48.180;11.524;2022-08-19T00:17:40;4.40;;;3.80;;
64313;SDS011;50650;48.180;11.524;2022-08-19T00:20:09;4.25;;;3.85;;
64313;SDS011;50650;48.180;11.524;2022-08-19T00:22:37;4.40;;;3.80;;
64313;SDS011;50650;48.180;11.524;2022-08-19T00:25:03;4.25;;;3.58;;
64313;SDS011;50650;48.180;11.524;2022-08-19T00:27:32;3.92;;;3.53;;
64313;SDS011;50650;48.180;11.524;2022-08-19T00:29:59;4.30;;;3.90;;
64313;SDS011;50650;48.180;11.524;2022-08-19T00:32:28;5.05;;;3.53;;
64313;SDS011;50650;48.180;11.524;2022-08-19T00:34:55;6.25;;;4.47;;
64313;SDS011;50650;48.180;11.524;2022-08-19T00:37:22;5.72;;;4.72;;
64313;SDS011;50650;48.180;11.524;2022-08-19T00:39:51;4.97;;;4.13;;
64313;SDS011;50650;48.180;11.524;2022-08-19T00:42:18;6.15;;;4.43;;
64313;SDS011;50650;48.180;11.524;2022-08-19T00:44:46;8.63;;;5.07;;
64313;SDS011;50650;48.180;11.524;2022-08-19T00:47:14;8.02;;;5.03;;
64313;SDS011;50650;48.180;11.524;2022-08-19T00:49:41;6.78;;;5.30;;
64313;SDS011;50650;48.180;11.524;2022-08-19T00:52:11;6.30;;;5.38;;
64313;SDS011;50650;48.180;11.524;2022-08-19T00:54:40;6.47;;;5.82;;
64313;SDS011;50650;48.180;11.524;2022-08-19T00:57:07;8.10;;;5.57;;
64313;SDS011;50650;48.180;11.524;2022-08-19T00:59:38;6.45;;;5.75;;
64313;SDS011;50650;48.180;11.524;2022-08-19T01:02:07;7.60;;;5.88;;
64313;SDS011;50650;48.180;11.524;2022-08-19T01:04:34;7.38;;;6.13;;
64313;SDS011;50650;48.180;11.524;2022-08-19T01:07:01;8.35;;;5.90;;
64313;SDS011;50650;48.180;11.524;2022-08-19T01:09:28;7.38;;;6.53;;
64313;SDS011;50650;48.180;11.524;2022-08-19T01:11:55;7.38;;;5.43;;
64313;SDS011;50650;48.180;11.524;2022-08-19T01:14:22;6.30;;;5.70;;
64313;SDS011;50650;48.180;11.524;2022-08-19T01:16:49;7.55;;;6.57;;
64313;SDS011;50650;48.180;11.524;2022-08-19T01:19:21;7.95;;;6.82;;
64313;SDS011;50650;48.180;11.524;2022-08-19T01:21:54;9.00;;;6.85;;
64313;SDS011;50650;48.180;11.524;2022-08-19T01:24:23;8.57;;;6.68;;
64313;SDS011;50650;48.180;11.524;2022-08-19T01:26:51;8.30;;;6.88;;
64313;SDS011;50650;48.180;11.524;2022-08-19T01:29:18;9.38;;;6.85;;
64313;SDS011;50650;48.180;11.524;2022-08-19T01:31:44;8.85;;;7.60;;
64313;SDS011;50650;48.180;11.524;2022-08-19T01:34:10;10.73;;;7.95;;
64313;SDS011;50650;48.180;11.524;2022-08-19T01:36:39;9.00;;;7.63;;
64313;SDS011;50650;48.180;11.524;2022-08-19T01:39:09;8.65;;;6.82;;
64313;SDS011;50650;48.180;11.524;2022-08-19T01:41:37;8.95;;;7.88;;
64313;SDS011;50650;48.180;11.524;2022-08-19T01:44:04;8.18;;;7.18;;
64313;SDS011;50650;48.180;11.524;2022-08-19T01:46:33;8.52;;;7.40;;
64313;SDS011;50650;48.180;11.524;2022-08-19T01:49:00;7.25;;;6.25;;
64313;SDS011;50650;48.180;11.524;2022-08-19T01:51:26;7.93;;;7.10;;
64313;SDS011;50650;48.180;11.524;2022-08-19T01:53:53;10.70;;;6.80;;
64313;SDS011;50650;48.180;11.524;2022-08-19T01:56:20;7.82;;;6.78;;
64313;SDS011;50650;48.180;11.524;2022-08-19T01:58:49;9.23;;;7.78;;
64313;SDS011;50650;48.180;11.524;2022-08-19T02:01:17;8.15;;;6.70;;
64313;SDS011;50650;48.180;11.524;2022-08-19T02:03:44;8.45;;;7.25;;
64313;SDS011;50650;48.180;11.524;2022-08-19T02:06:11;10.27;;;7.53;;
64313;SDS011;50650;48.180;11.524;2022-08-19T02:08:38;8.23;;;6.85;;
64313;SDS011;50650;48.180;11.524;2022-08-19T02:11:05;9.98;;;7.30;;
64313;SDS011;50650;48.180;11.524;2022-08-19T02:13:32;8.88;;;7.93;;
64313;SDS011;50650;48.180;11.524;2022-08-19T02:16:00;8.45;;;7.50;;
64313;SDS011;50650;48.180;11.524;2022-08-19T02:18:27;8.63;;;7.20;;
64313;SDS011;50650;48.180;11.524;2022-08-19T02:20:54;8.57;;;7.22;;
64313;SDS011;50650;48.180;11.524;2022-08-19T02:23:21;7.70;;;6.75;;
64313;SDS011;50650;48.180;11.524;2022-08-19T02:25:47;7.75;;;6.95;;
64313;SDS011;50650;48.180;11.524;2022-08-19T02:28:15;10.90;;;6.70;;
64313;SDS011;50650;48.180;11.524;2022-08-19T02:30:42;6.97;;;6.28;;
64313;SDS011;50650;48.180;11.524;2022-08-19T02:33:09;11.02;;;6.30;;
64313;SDS011;50650;48.180;11.524;2022-08-19T02:35:36;7.10;;;6.35;;
64313;SDS011;50650;48.180;11.524;2022-08-19T02:38:03;7.28;;;6.50;;
64313;SDS011;50650;48.180;11.524;2022-08-19T02:40:50;6.32;;;5.72;;
64313;SDS011;50650;48.180;11.524;2022-08-19T02:43:18;7.30;;;5.57;;
64313;SDS011;50650;48.180;11.524;2022-08-19T02:45:46;7.10;;;5.57;;
64313;SDS011;50650;48.180;11.524;2022-08-19T02:48:14;5.78;;;5.18;;
64313;SDS011;50650;48.180;11.524;2022-08-19T02:50:42;5.82;;;5.07;;
64313;SDS011;50650;48.180;11.524;2022-08-19T02:53:09;6.07;;;4.80;;
64313;SDS011;50650;48.180;11.524;2022-08-19T02:55:36;5.50;;;5.00;;
64313;SDS011;50650;48.180;11.524;2022-08-19T02:58:09;7.88;;;5.63;;
64313;SDS011;50650;48.180;11.524;2022-08-19T03:00:40;5.68;;;4.88;;
64313;SDS011;50650;48.180;11.524;2022-08-19T03:03:08;5.82;;;5.13;;
64313;SDS011;50650;48.180;11.524;2022-08-19T03:05:36;5.60;;;5.07;;
64313;SDS011;50650;48.180;11.524;2022-08-19T03:08:03;5.95;;;5.35;;
64313;SDS011;50650;48.180;11.524;2022-08-19T03:10:30;5.78;;;4.97;;
64313;SDS011;50650;48.180;11.524;2022-08-19T03:12:57;5.85;;;5.07;;
64313;SDS011;50650;48.180;11.524;2022-08-19T03:15:24;6.25;;;5.40;;
64313;SDS011;50650;48.180;11.524;2022-08-19T03:17:51;6.63;;;5.03;;
64313;SDS011;50650;48.180;11.524;2022-08-19T03:20:17;6.10;;;4.57;;
64313;SDS011;50650;48.180;11.524;2022-08-19T03:22:45;6.20;;;5.07;;
64313;SDS011;50650;48.180;11.524;2022-08-19T03:25:12;5.95;;;5.35;;
64313;SDS011;50650;48.180;11.524;2022-08-19T03:27:38;6.57;;;5.32;;
64313;SDS011;50650;48.180;11.524;2022-08-19T03:30:05;7.28;;;5.13;;
64313;SDS011;50650;48.180;11.524;2022-08-19T03:32:33;6.75;;;4.90;;
64313;SDS011;50650;48.180;11.524;2022-08-19T03:35:00;6.28;;;5.10;;
64313;SDS011;50650;48.180;11.524;2022-08-19T03:37:27;6.35;;;5.60;;
64313;SDS011;50650;48.180;11.524;2022-08-19T03:39:55;7.57;;;5.50;;
64313;SDS011;50650;48.180;11.524;2022-08-19T03:42:21;8.27;;;5.90;;
64313;SDS011;50650;48.180;11.524;2022-08-19T03:44:48;6.30;;;5.15;;
64313;SDS011;50650;48.180;11.524;2022-08-19T03:47:14;6.70;;;6.00;;
64313;SDS011;50650;48.180;11.524;2022-08-19T03:49:41;8.13;;;5.20;;
64313;SDS011;50650;48.180;11.524;2022-08-19T03:52:08;6.35;;;5.22;;
64313;SDS011;50650;48.180;11.524;2022-08-19T03:54:35;7.45;;;5.63;;
64313;SDS011;50650;48.180;11.524;2022-08-19T03:57:04;6.53;;;5.75;;
64313;SDS011;50650;48.180;11.524;2022-08-19T03:59:32;6.65;;;5.18;;
64313;SDS011;50650;48.180;11.524;2022-08-19T04:02:01;8.05;;;5.80;;
64313;SDS011;50650;48.180;11.524;2022-08-19T04:04:29;8.23;;;6.60;;
64313;SDS011;50650;48.180;11.524;2022-08-19T04:06:56;6.38;;;5.68;;
64313;SDS011;50650;48.180;11.524;2022-08-19T04:09:22;8.77;;;6.40;;
64313;SDS011;50650;48.180;11.524;2022-08-19T04:11:49;9.60;;;5.93;;
64313;SDS011;50650;48.180;11.524;2022-08-19T04:14:21;7.55;;;6.55;;
64313;SDS011;50650;48.180;11.524;2022-08-19T04:16:49;6.97;;;6.13;;
64313;SDS011;50650;48.180;11.524;2022-08-19T04:19:16;6.78;;;5.57;;
64313;SDS011;50650;48.180;11.524;2022-08-19T04:21:44;9.02;;;6.50;;
64313;SDS011;50650;48.180;11.524;2022-08-19T04:24:11;7.20;;;6.43;;
64313;SDS011;50650;48.180;11.524;2022-08-19T04:26:38;9.98;;;6.20;;
64313;SDS011;50650;48.180;11.524;2022-08-19T04:29:06;6.50;;;5.57;;
64313;SDS011;50650;48.180;11.524;2022-08-19T04:31:36;8.27;;;6.38;;
64313;SDS011;50650;48.180;11.524;2022-08-19T04:34:03;6.80;;;5.90;;
64313;SDS011;50650;48.180;11.524;2022-08-19T04:36:32;7.53;;;6.40;;
64313;SDS011;50650;48.180;11.524;2022-08-19T04:39:00;8.82;;;7.30;;
64313;SDS011;50650;48.180;11.524;2022-08-19T04:41:28;8.43;;;7.22;;
64313;SDS011;50650;48.180;11.524;2022-08-19T04:44:13;9.25;;;7.20;;
64313;SDS011;50650;48.180;11.524;2022-08-19T04:46:44;8.73;;;7.05;;
64313;SDS011;50650;48.180;11.524;2022-08-19T04:49:12;9.35;;;6.78;;
64313;SDS011;50650;48.180;11.524;2022-08-19T04:51:39;9.27;;;7.10;;
64313;SDS011;50650;48.180;11.524;2022-08-19T04:54:07;9.90;;;7.57;;
64313;SDS011;50650;48.180;11.524;2022-08-19T04:56:33;8.55;;;6.45;;
64313;SDS011;50650;48.180;11.524;2022-08-19T04:59:00;9.80;;;7.55;;
64313;SDS011;50650;48.180;11.524;2022-08-19T05:01:29;8.18;;;6.65;;
64313;SDS011;50650;48.180;11.524;2022-08-19T05:03:58;9.18;;;7.53;;
64313;SDS011;50650;48.180;11.524;2022-08-19T05:06:26;10.45;;;7.30;;
64313;SDS011;50650;48.180;11.524;2022-08-19T05:08:57;9.43;;;7.40;;
64313;SDS011;50650;48.180;11.524;2022-08-19T05:11:26;8.48;;;6.90;;
64313;SDS011;50650;48.180;11.524;2022-08-19T05:13:54;12.27;;;7.40;;
64313;SDS011;50650;48.180;11.524;2022-08-19T05:16:22;8.68;;;6.82;;
64313;SDS011;50650;48.180;11.524;2022-08-19T05:18:50;10.65;;;8.68;;
64313;SDS011;50650;48.180;11.524;2022-08-19T05:21:35;9.10;;;7.07;;
64313;SDS011;50650;48.180;11.524;2022-08-19T05:24:21;9.40;;;7.60;;
64313;SDS011;50650;48.180;11.524;2022-08-19T05:26:49;9.15;;;7.00;;
64313;SDS011;50650;48.180;11.524;2022-08-19T05:29:18;9.38;;;6.85;;
64313;SDS011;50650;48.180;11.524;2022-08-19T05:31:47;7.95;;;6.22;;
64313;SDS011;50650;48.180;11.524;2022-08-19T05:34:15;14.35;;;6.68;;
64313;SDS011;50650;48.180;11.524;2022-08-19T05:36:43;7.85;;;6.93;;
64313;SDS011;50650;48.180;11.524;2022-08-19T05:39:11;13.25;;;6.35;;
64313;SDS011;50650;48.180;11.524;2022-08-19T05:41:41;8.48;;;6.75;;
64313;SDS011;50650;48.180;11.524;2022-08-19T05:44:08;11.98;;;6.70;;
64313;SDS011;50650;48.180;11.524;2022-08-19T05:46:34;8.43;;;6.93;;
64313;SDS011;50650;48.180;11.524;2022-08-19T05:49:02;9.82;;;7.40;;
64313;SDS011;50650;48.180;11.524;2022-08-19T05:51:29;9.85;;;6.38;;
64313;SDS011;50650;48.180;11.524;2022-08-19T05:53:57;10.65;;;7.50;;
64313;SDS011;50650;48.180;11.524;2022-08-19T05:56:24;9.55;;;7.85;;
64313;SDS011;50650;48.180;11.524;2022-08-19T05:58:51;9.70;;;7.20;;
64313;SDS011;50650;48.180;11.524;2022-08-19T06:01:19;9.00;;;6.97;;
64313;SDS011;50650;48.180;11.524;2022-08-19T06:03:45;10.07;;;7.75;;
64313;SDS011;50650;48.180;11.524;2022-08-19T06:06:14;9.75;;;7.78;;
64313;SDS011;50650;48.180;11.524;2022-08-19T06:08:41;10.57;;;8.00;;
64313;SDS011;50650;48.180;11.524;2022-08-19T06:11:16;10.13;;;8.40;;
64313;SDS011;50650;48.180;11.524;2022-08-19T06:13:45;13.43;;;8.38;;
64313;SDS011;50650;48.180;11.524;2022-08-19T06:16:14;11.95;;;8.95;;
64313;SDS011;50650;48.180;11.524;2022-08-19T06:18:46;10.32;;;9.13;;
64313;SDS011;50650;48.180;11.524;2022-08-19T06:21:12;14.95;;;10.48;;
64313;SDS011;50650;48.180;11.524;2022-08-19T06:23:39;14.15;;;10.68;;
64313;SDS011;50650;48.180;11.524;2022-08-19T06:26:05;13.15;;;10.20;;
64313;SDS011;50650;48.180;11.524;2022-08-19T06:28:34;10.32;;;8.48;;
64313;SDS011;50650;48.180;11.524;2022-08-19T06:31:05;11.60;;;9.75;;
64313;SDS011;50650;48.180;11.524;2022-08-19T06:33:32;13.23;;;10.20;;
64313;SDS011;50650;48.180;11.524;2022-08-19T06:35:58;13.32;;;9.90;;
64313;SDS011;50650;48.180;11.524;2022-08-19T06:38:25;11.82;;;10.02;;
64313;SDS011;50650;48.180;11.524;2022-08-19T06:40:59;11.93;;;9.77;;
64313;SDS011;50650;48.180;11.524;2022-08-19T06:43:26;12.63;;;10.70;;
64313;SDS011;50650;48.180;11.524;2022-08-19T06:45:56;13.88;;;11.00;;
64313;SDS011;50650;48.180;11.524;2022-08-19T06:48:23;13.93;;;11.15;;
64313;SDS011;50650;48.180;11.524;2022-08-19T06:50:50;12.07;;;10.88;;
64313;SDS011;50650;48.180;11.524;2022-08-19T06:53:16;17.45;;;12.15;;
64313;SDS011;50650;48.180;11.524;2022-08-19T06:55:44;14.00;;;11.63;;
64313;SDS011;50650;48.180;11.524;2022-08-19T06:58:10;13.30;;;10.65;;
64313;SDS011;50650;48.180;11.524;2022-08-19T07:00:37;15.45;;;10.57;;
64313;SDS011;50650;48.180;11.524;2022-08-19T07:03:05;13.07;;;10.45;;
64313;SDS011;50650;48.180;11.524;2022-08-19T07:05:31;12.32;;;9.95;;
64313;SDS011;50650;48.180;11.524;2022-08-19T07:07:58;12.93;;;10.65;;
64313;SDS011;50650;48.180;11.524;2022-08-19T07:10:25;13.77;;;11.00;;
64313;SDS011;50650;48.180;11.524;2022-08-19T07:12:51;14.70;;;10.98;;
64313;SDS011;50650;48.180;11.524;2022-08-19T07:15:18;13.55;;;11.70;;
64313;SDS011;50650;48.180;11.524;2022-08-19T07:17:46;15.32;;;11.57;;
64313;SDS011;50650;48.180;11.524;2022-08-19T07:20:14;12.80;;;11.32;;
64313;SDS011;50650;48.180;11.524;2022-08-19T07:22:41;14.70;;;11.95;;
64313;SDS011;50650;48.180;11.524;2022-08-19T07:25:08;16.58;;;13.52;;
64313;SDS011;50650;48.180;11.524;2022-08-19T07:27:35;20.90;;;13.18;;
64313;SDS011;50650;48.180;11.524;2022-08-19T07:30:02;16.10;;;13.73;;
64313;SDS011;50650;48.180;11.524;2022-08-19T07:32:30;20.48;;;14.02;;
64313;SDS011;50650;48.180;11.524;2022-08-19T07:34:56;21.17;;;13.75;;
64313;SDS011;50650;48.180;11.524;2022-08-19T07:37:26;16.15;;;13.38;;
64313;SDS011;50650;48.180;11.524;2022-08-19T07:39:53;19.20;;;14.25;;
64313;SDS011;50650;48.180;11.524;2022-08-19T07:42:20;17.50;;;15.02;;
64313;SDS011;50650;48.180;11.524;2022-08-19T07:44:46;19.17;;;14.30;;
64313;SDS011;50650;48.180;11.524;2022-08-19T07:47:13;22.52;;;15.55;;
64313;SDS011;50650;48.180;11.524;2022-08-19T07:49:40;19.30;;;15.88;;
64313;SDS011;50650;48.180;11.524;2022-08-19T07:52:08;16.40;;;13.00;;
64313;SDS011;50650;48.180;11.524;2022-08-19T07:54:37;18.83;;;14.93;;
64313;SDS011;50650;48.180;11.524;2022-08-19T07:57:06;21.27;;;14.18;;
64313;SDS011;50650;48.180;11.524;2022-08-19T07:59:32;19.92;;;14.30;;
64313;SDS011;50650;48.180;11.524;2022-08-19T08:01:59;19.50;;;15.35;;
64313;SDS011;50650;48.180;11.524;2022-08-19T08:04:27;23.58;;;17.80;;
64313;SDS011;50650;48.180;11.524;2022-08-19T08:07:11;22.83;;;16.80;;
64313;SDS011;50650;48.180;11.524;2022-08-19T08:09:57;18.88;;;15.75;;
64313;SDS011;50650;48.180;11.524;2022-08-19T08:12:25;21.52;;;16.52;;
64313;SDS011;50650;48.180;11.524;2022-08-19T08:14:56;23.98;;;18.27;;
64313;SDS011;50650;48.180;11.524;2022-08-19T08:17:25;23.23;;;16.58;;
64313;SDS011;50650;48.180;11.524;2022-08-19T08:19:52;22.05;;;18.13;;
64313;SDS011;50650;48.180;11.524;2022-08-19T08:22:19;22.92;;;17.15;;
64313;SDS011;50650;48.180;11.524;2022-08-19T08:25:06;22.63;;;17.70;;
64313;SDS011;50650;48.180;11.524;2022-08-19T08:27:35;21.38;;;15.90;;
64313;SDS011;50650;48.180;11.524;2022-08-19T08:30:04;21.52;;;16.40;;
64313;SDS011;50650;48.180;11.524;2022-08-19T08:32:34;24.23;;;18.40;;
64313;SDS011;50650;48.180;11.524;2022-08-19T08:35:01;24.67;;;18.33;;
64313;SDS011;50650;48.180;11.524;2022-08-19T08:37:27;24.13;;;18.95;;
64313;SDS011;50650;48.180;11.524;2022-08-19T08:39:55;29.33;;;20.00;;
64313;SDS011;50650;48.180;11.524;2022-08-19T08:42:24;27.38;;;19.63;;
64313;SDS011;50650;48.180;11.524;2022-08-19T08:44:56;25.77;;;19.80;;
64313;SDS011;50650;48.180;11.524;2022-08-19T08:47:25;27.75;;;19.00;;
64313;SDS011;50650;48.180;11.524;2022-08-19T08:49:54;22.98;;;18.73;;
64313;SDS011;50650;48.180;11.524;2022-08-19T08:52:25;26.00;;;19.20;;
64313;SDS011;50650;48.180;11.524;2022-08-19T08:54:54;24.70;;;18.75;;
64313;SDS011;50650;48.180;11.524;2022-08-19T08:57:26;26.60;;;18.95;;
64313;SDS011;50650;48.180;11.524;2022-08-19T08:59:55;26.40;;;19.25;;
64313;SDS011;50650;48.180;11.524;2022-08-19T09:02:23;26.92;;;19.10;;
64313;SDS011;50650;48.180;11.524;2022-08-19T09:04:50;29.55;;;19.92;;
64313;SDS011;50650;48.180;11.524;2022-08-19T09:07:24;25.48;;;19.48;;
64313;SDS011;50650;48.180;11.524;2022-08-19T09:09:55;26.75;;;19.90;;
64313;SDS011;50650;48.180;11.524;2022-08-19T09:12:34;27.20;;;18.98;;
64313;SDS011;50650;48.180;11.524;2022-08-19T09:15:04;28.60;;;21.55;;
64313;SDS011;50650;48.180;11.524;2022-08-19T09:17:33;27.50;;;20.40;;
64313;SDS011;50650;48.180;11.524;2022-08-19T09:20:00;26.80;;;20.17;;
64313;SDS011;50650;48.180;11.524;2022-08-19T09:22:31;29.95;;;20.17;;
64313;SDS011;50650;48.180;11.524;2022-08-19T09:24:58;28.35;;;22.10;;
64313;SDS011;50650;48.180;11.524;2022-08-19T09:27:25;29.25;;;20.83;;
64313;SDS011;50650;48.180;11.524;2022-08-19T09:29:53;33.03;;;22.85;;
64313;SDS011;50650;48.180;11.524;2022-08-19T09:32:21;27.67;;;21.23;;
64313;SDS011;50650;48.180;11.524;2022-08-19T09:34:48;28.42;;;21.35;;
64313;SDS011;50650;48.180;11.524;2022-08-19T09:37:15;29.40;;;20.67;;
64313;SDS011;50650;48.180;11.524;2022-08-19T09:39:41;31.10;;;21.80;;
64313;SDS011;50650;48.180;11.524;2022-08-19T09:42:09;30.83;;;21.60;;
64313;SDS011;50650;48.180;11.524;2022-08-19T09:44:37;30.75;;;20.50;;
64313;SDS011;50650;48.180;11.524;2022-08-19T09:47:05;26.63;;;20.13;;
64313;SDS011;50650;48.180;11.524;2022-08-19T09:49:31;26.20;;;17.70;;
64313;SDS011;50650;48.180;11.524;2022-08-19T09:51:58;27.00;;;17.55;;
64313;SDS011;50650;48.180;11.524;2022-08-19T09:54:25;23.63;;;16.92;;
64313;SDS011;50650;48.180;11.524;2022-08-19T09:56:52;24.35;;;16.95;;
64313;SDS011;50650;48.180;11.524;2022-08-19T09:59:19;22.42;;;17.08;;
64313;SDS011;50650;48.180;11.524;2022-08-19T10:01:46;24.75;;;16.75;;
64313;SDS011;50650;48.180;11.524;2022-08-19T10:04:14;21.77;;;16.00;;
64313;SDS011;50650;48.180;11.524;2022-08-19T10:06:41;20.20;;;15.63;;
64313;SDS011;50650;48.180;11.524;2022-08-19T10:09:08;21.02;;;15.02;;
64313;SDS011;50650;48.180;11.524;2022-08-19T10:11:44;21.38;;;14.98;;
64313;SDS011;50650;48.180;11.524;2022-08-19T10:14:22;21.10;;;14.93;;
64313;SDS011;50650;48.180;11.524;2022-08-19T10:17:11;20.77;;;14.65;;
64313;SDS011;50650;48.180;11.524;2022-08-19T10:19:55;21.77;;;15.45;;
64313;SDS011;50650;48.180;11.524;2022-08-19T10:22:52;24.50;;;15.82;;
64313;SDS011;50650;48.180;11.524;2022-08-19T10:25:35;23.70;;;15.55;;
64313;SDS011;50650;48.180;11.524;2022-08-19T10:28:22;23.85;;;15.23;;
64313;SDS011;50650;48.180;11.524;2022-08-19T10:31:09;21.80;;;15.90;;
64313;SDS011;50650;48.180;11.524;2022-08-19T10:34:23;21.75;;;15.43;;
64313;SDS011;50650;48.180;11.524;2022-08-19T10:37:24;21.83;;;14.52;;
64313;SDS011;50650;48.180;11.524;2022-08-19T10:40:07;18.85;;;13.43;;
64313;SDS011;50650;48.180;11.524;2022-08-19T10:43:05;16.08;;;12.65;;
64313;SDS011;50650;48.180;11.524;2022-08-19T10:46:07;16.00;;;12.65;;
64313;SDS011;50650;48.180;11.524;2022-08-19T10:51:56;15.07;;;12.27;;
64313;SDS011;50650;48.180;11.524;2022-08-19T11:05:23;10.48;;;8.02;;
64313;SDS011;50650;48.180;11.524;2022-08-19T11:08:33;7.65;;;6.05;;
64313;SDS011;50650;48.180;11.524;2022-08-19T11:15:11;5.38;;;4.57;;
64313;SDS011;50650;48.180;11.524;2022-08-19T11:17:38;5.05;;;4.30;;
64313;SDS011;50650;48.180;11.524;2022-08-19T11:20:08;5.95;;;3.83;;
64313;SDS011;50650;48.180;11.524;2022-08-19T11:22:36;3.72;;;3.20;;
64313;SDS011;50650;48.180;11.524;2022-08-19T11:25:03;2.90;;;2.58;;
64313;SDS011;50650;48.180;11.524;2022-08-19T11:27:30;2.70;;;2.20;;
64313;SDS011;50650;48.180;11.524;2022-08-19T11:29:56;4.28;;;2.30;;
64313;SDS011;50650;48.180;11.524;2022-08-19T11:32:25;2.42;;;2.15;;
64313;SDS011;50650;48.180;11.524;2022-08-19T11:34:51;2.28;;;2.03;;
64313;SDS011;50650;48.180;11.524;2022-08-19T11:37:19;1.98;;;1.65;;
64313;SDS011;50650;48.180;11.524;2022-08-19T11:39:46;2.28;;;1.98;;
64313;SDS011;50650;48.180;11.524;2022-08-19T11:42:13;1.92;;;1.77;;
64313;SDS011;50650;48.180;11.524;2022-08-19T11:44:57;2.03;;;1.50;;
64313;SDS011;50650;48.180;11.524;2022-08-19T11:47:26;1.67;;;1.58;;
64313;SDS011;50650;48.180;11.524;2022-08-19T11:49:52;1.58;;;1.48;;
64313;SDS011;50650;48.180;11.524;2022-08-19T11:52:19;2.42;;;1.17;;
64313;SDS011;50650;48.180;11.524;2022-08-19T11:54:47;2.97;;;1.27;;
64313;SDS011;50650;48.180;11.524;2022-08-19T11:57:14;1.98;;;1.30;;
64313;SDS011;50650;48.180;11.524;2022-08-19T11:59:42;1.83;;;1.27;;
64313;SDS011;50650;48.180;11.524;2022-08-19T12:02:08;3.28;;;1.20;;
64313;SDS011;50650;48.180;11.524;2022-08-19T12:04:37;3.38;;;1.10;;
64313;SDS011;50650;48.180;11.524;2022-08-19T12:07:03;1.83;;;1.05;;
64313;SDS011;50650;48.180;11.524;2022-08-19T12:09:29;1.48;;;1.10;;
64313;SDS011;50650;48.180;11.524;2022-08-19T12:11:59;1.42;;;1.08;;
64313;SDS011;50650;48.180;11.524;2022-08-19T12:14:26;1.38;;;1.00;;
64313;SDS011;50650;48.180;11.524;2022-08-19T12:16:55;1.40;;;0.95;;
64313;SDS011;50650;48.180;11.524;2022-08-19T12:19:22;1.40;;;1.00;;
64313;SDS011;50650;48.180;11.524;2022-08-19T12:21:51;1.48;;;1.08;;
64313;SDS011;50650;48.180;11.524;2022-08-19T12:24:20;1.13;;;1.00;;
64313;SDS011;50650;48.180;11.524;2022-08-19T12:26:48;1.20;;;0.90;;
64313;SDS011;50650;48.180;11.524;2022-08-19T12:29:14;1.63;;;1.10;;
64313;SDS011;50650;48.180;11.524;2022-08-19T12:31:41;1.27;;;1.00;;
64313;SDS011;50650;48.180;11.524;2022-08-19T12:34:07;1.13;;;0.75;;
64313;SDS011;50650;48.180;11.524;2022-08-19T12:36:34;0.93;;;0.82;;
64313;SDS011;50650;48.180;11.524;2022-08-19T12:39:02;1.10;;;0.90;;
64313;SDS011;50650;48.180;11.524;2022-08-19T12:41:29;1.08;;;0.73;;
64313;SDS011;50650;48.180;11.524;2022-08-19T12:43:55;1.45;;;0.70;;
64313;SDS011;50650;48.180;11.524;2022-08-19T12:46:23;1.67;;;0.90;;
64313;SDS011;50650;48.180;11.524;2022-08-19T12:48:49;1.35;;;0.60;;
64313;SDS011;50650;48.180;11.524;2022-08-19T12:51:17;1.98;;;0.70;;
64313;SDS011;50650;48.180;11.524;2022-08-19T12:53:45;0.98;;;0.88;;
64313;SDS011;50650;48.180;11.524;2022-08-19T12:56:13;0.73;;;0.70;;
64313;SDS011;50650;48.180;11.524;2022-08-19T12:58:41;0.88;;;0.75;;
64313;SDS011;50650;48.180;11.524;2022-08-19T13:01:09;1.15;;;0.80;;
64313;SDS011;50650;48.180;11.524;2022-08-19T13:03:37;1.10;;;0.70;;
64313;SDS011;50650;48.180;11.524;2022-08-19T13:06:04;2.25;;;0.88;;
64313;SDS011;50650;48.180;11.524;2022-08-19T13:08:31;1.80;;;1.30;;
64313;SDS011;50650;48.180;11.524;2022-08-19T13:11:02;1.63;;;1.08;;
64313;SDS011;50650;48.180;11.524;2022-08-19T13:13:34;1.00;;;0.90;;
64313;SDS011;50650;48.180;11.524;2022-08-19T13:16:01;0.90;;;0.70;;
64313;SDS011;50650;48.180;11.524;2022-08-19T13:18:28;1.20;;;0.90;;
64313;SDS011;50650;48.180;11.524;2022-08-19T13:20:54;1.13;;;1.00;;
64313;SDS011;50650;48.180;11.524;2022-08-19T13:23:21;0.95;;;0.85;;
64313;SDS011;50650;48.180;11.524;2022-08-19T13:25:55;1.00;;;0.80;;
64313;SDS011;50650;48.180;11.524;2022-08-19T13:30:49;0.80;;;0.77;;
64313;SDS011;50650;48.180;11.524;2022-08-19T13:33:33;1.10;;;1.00;;
64313;SDS011;50650;48.180;11.524;2022-08-19T13:36:01;1.38;;;1.20;;
64313;SDS011;50650;48.180;11.524;2022-08-19T13:38:31;1.17;;;1.08;;
64313;SDS011;50650;48.180;11.524;2022-08-19T13:41:03;1.50;;;1.40;;
64313;SDS011;50650;48.180;11.524;2022-08-19T13:43:30;3.47;;;1.52;;
64313;SDS011;50650;48.180;11.524;2022-08-19T13:45:57;2.05;;;1.40;;
64313;SDS011;50650;48.180;11.524;2022-08-19T13:48:25;4.85;;;1.60;;
64313;SDS011;50650;48.180;11.524;2022-08-19T13:50:52;2.50;;;1.65;;
64313;SDS011;50650;48.180;11.524;2022-08-19T13:53:19;1.83;;;1.55;;
64313;SDS011;50650;48.180;11.524;2022-08-19T13:55:45;2.50;;;1.50;;
64313;SDS011;50650;48.180;11.524;2022-08-19T13:58:12;1.50;;;1.40;;
64313;SDS011;50650;48.180;11.524;2022-08-19T14:00:41;1.95;;;1.58;;
64313;SDS011;50650;48.180;11.524;2022-08-19T14:03:10;2.13;;;1.70;;
64313;SDS011;50650;48.180;11.524;2022-08-19T14:05:37;2.10;;;1.55;;
64313;SDS011;50650;48.180;11.524;2022-08-19T14:08:04;2.00;;;1.40;;
64313;SDS011;50650;48.180;11.524;2022-08-19T14:10:31;3.03;;;2.10;;
64313;SDS011;50650;48.180;11.524;2022-08-19T14:12:59;2.53;;;2.28;;
64313;SDS011;50650;48.180;11.524;2022-08-19T14:15:27;2.65;;;1.90;;
64313;SDS011;50650;48.180;11.524;2022-08-19T14:17:54;3.78;;;1.80;;
64313;SDS011;50650;48.180;11.524;2022-08-19T14:20:23;2.17;;;1.80;;
64313;SDS011;50650;48.180;11.524;2022-08-19T14:22:49;2.60;;;2.00;;
64313;SDS011;50650;48.180;11.524;2022-08-19T14:25:17;2.83;;;2.28;;
64313;SDS011;50650;48.180;11.524;2022-08-19T14:27:45;2.30;;;2.10;;
64313;SDS011;50650;48.180;11.524;2022-08-19T14:30:13;2.33;;;2.00;;
64313;SDS011;50650;48.180;11.524;2022-08-19T14:32:41;2.60;;;2.40;;
64313;SDS011;50650;48.180;11.524;2022-08-19T14:35:08;3.25;;;2.38;;
64313;SDS011;50650;48.180;11.524;2022-08-19T14:37:36;2.67;;;2.47;;
64313;SDS011;50650;48.180;11.524;2022-08-19T14:40:03;4.00;;;2.13;;
64313;SDS011;50650;48.180;11.524;2022-08-19T14:42:30;2.35;;;2.03;;
64313;SDS011;50650;48.180;11.524;2022-08-19T14:44:57;2.33;;;1.92;;
64313;SDS011;50650;48.180;11.524;2022-08-19T14:47:26;2.63;;;2.13;;
64313;SDS011;50650;48.180;11.524;2022-08-19T14:49:53;3.03;;;1.90;;
64313;SDS011;50650;48.180;11.524;2022-08-19T14:52:20;2.70;;;2.00;;
64313;SDS011;50650;48.180;11.524;2022-08-19T14:54:48;2.70;;;2.33;;
64313;SDS011;50650;48.180;11.524;2022-08-19T14:57:16;2.60;;;2.17;;